createdAt,value
2022-11-21T00:01:39.401Z,99951.13
2022-11-21T00:04:41.818Z,99958.72
2022-11-21T00:07:46.121Z,99952.78
2022-11-21T00:10:49.184Z,99955.34
2022-11-21T00:13:51.631Z,99942.53
2022-11-21T00:16:57.302Z,99940.81
2022-11-21T00:20:00.108Z,99949.41
2022-11-21T00:23:03.105Z,99956.03
2022-11-21T00:26:07.128Z,99955.28
2022-11-21T00:29:09.887Z,99956.03
2022-11-21T00:32:12.437Z,99951.91
2022-11-21T00:35:15.071Z,99946.81
2022-11-21T00:38:17.820Z,99948.47
2022-11-21T00:41:20.530Z,99939.16
2022-11-21T00:44:23.145Z,99940.88
2022-11-21T00:47:25.596Z,99940.94
2022-11-21T00:50:28.402Z,99942.78
2022-11-21T00:53:31.200Z,99943.66
2022-11-21T00:56:33.766Z,99947.13
2022-11-21T00:59:36.238Z,99943.84
2022-11-21T01:02:38.802Z,99939.72
2022-11-21T01:05:41.353Z,99939.03
2022-11-21T01:08:45.251Z,99936.44
2022-11-21T01:11:47.844Z,99921.06
2022-11-21T01:14:50.826Z,99909.31
2022-11-21T01:17:53.258Z,99906.78
2022-11-21T01:21:00.356Z,99895.81
2022-11-21T01:24:03.177Z,99894.94
2022-11-21T01:27:05.733Z,99904.09
2022-11-21T01:30:09.063Z,99892.19
2022-11-21T01:33:11.481Z,99889.75
2022-11-21T01:36:16.683Z,99883.84
2022-11-21T01:39:19.302Z,99874.63
2022-11-21T01:42:21.713Z,99881.31
2022-11-21T01:46:04.537Z,99882.22
2022-11-21T01:49:11.223Z,99885.66
2022-11-21T01:52:21.751Z,99884.78
2022-11-21T01:55:24.116Z,99878.09
2022-11-21T01:58:28.064Z,99879.75
2022-11-21T02:01:32.836Z,99873.81
2022-11-21T02:04:36.362Z,99863.69
2022-11-21T02:07:43.222Z,99869.38
2022-11-21T02:11:26.536Z,99854.16
2022-11-21T02:14:29.656Z,99840.72
2022-11-21T02:17:33.019Z,99845.03
2022-11-21T02:20:37.378Z,99833.31
2022-11-21T02:24:04.812Z,99824.88
2022-11-21T02:27:07.489Z,99823.16
2022-11-21T02:30:11.169Z,99822.31
2022-11-21T02:33:14.767Z,99824.88
2022-11-21T02:36:37.846Z,99821.31
2022-11-21T02:39:41.204Z,99821.31
2022-11-21T02:43:01.884Z,99824.63
2022-11-21T02:46:04.339Z,99816.00
2022-11-21T02:49:09.522Z,99824.53
2022-11-21T02:52:12.085Z,99825.47
2022-11-21T02:55:16.024Z,99831.50
2022-11-21T02:58:19.676Z,99822.44
2022-11-21T03:01:22.143Z,99818.31
2022-11-21T03:04:24.697Z,99818.41
2022-11-21T03:07:27.566Z,99826.06
2022-11-21T03:10:30.475Z,99824.38
2022-11-21T03:13:32.896Z,99822.69
2022-11-21T03:16:35.366Z,99821.91
2022-11-21T03:19:37.823Z,99816.06
2022-11-21T03:22:40.415Z,99814.38
2022-11-21T03:25:42.938Z,99812.66
2022-11-21T03:28:45.501Z,99810.13
2022-11-21T03:31:48.090Z,99806.78
2022-11-21T03:34:50.681Z,99820.22
2022-11-21T03:37:53.626Z,99822.69
2022-11-21T03:40:56.175Z,99816.78
2022-11-21T03:44:02.510Z,99812.50
2022-11-21T03:47:04.977Z,99809.16
2022-11-21T03:50:08.103Z,99811.72
2022-11-21T03:53:11.205Z,99818.53
2022-11-21T03:56:13.687Z,99817.63
2022-11-21T03:59:16.542Z,99818.50
2022-11-21T04:02:19.019Z,99810.06
2022-11-21T04:05:21.404Z,99809.19
2022-11-21T04:08:24.018Z,99818.44
2022-11-21T04:11:26.519Z,99814.28
2022-11-21T04:14:29.171Z,99813.53
2022-11-21T04:17:31.991Z,99808.69
2022-11-21T04:20:34.668Z,99807.81
2022-11-21T04:23:37.105Z,99800.09
2022-11-21T04:26:39.543Z,99796.78
2022-11-21T04:29:41.964Z,99796.75
2022-11-21T04:32:44.364Z,99784.06
2022-11-21T04:35:47.118Z,99786.56
2022-11-21T04:38:49.509Z,99778.91
2022-11-21T04:41:51.990Z,99776.41
2022-11-21T04:44:54.436Z,99775.53
2022-11-21T04:47:57.015Z,99777.97
2022-11-21T04:50:59.459Z,99771.19
2022-11-21T04:54:01.879Z,99767.06
2022-11-21T04:57:04.295Z,99766.19
2022-11-21T05:00:07.362Z,99761.19
2022-11-21T05:03:09.906Z,99763.56
2022-11-21T05:06:12.471Z,99763.53
2022-11-21T05:09:14.946Z,99758.41
2022-11-21T05:12:35.905Z,99757.44
2022-11-21T05:15:38.336Z,99750.69
2022-11-21T05:18:40.822Z,99749.03
2022-11-21T05:21:43.302Z,99741.63
2022-11-21T05:24:45.759Z,99749.44
2022-11-21T05:27:48.192Z,99740.13
2022-11-21T05:30:50.571Z,99731.69
2022-11-21T05:33:53.139Z,99737.50
2022-11-21T05:36:59.030Z,99735.97
2022-11-21T05:40:01.605Z,99735.09
2022-11-21T05:43:23.075Z,99739.22
2022-11-21T05:46:26.763Z,99735.81
2022-11-21T05:49:29.286Z,99743.41
2022-11-21T05:52:31.744Z,99739.13
2022-11-21T05:55:34.826Z,99741.66
2022-11-21T05:58:38.150Z,99733.31
2022-11-21T06:01:59.357Z,99743.53
2022-11-21T06:05:02.111Z,99744.44
2022-11-21T06:08:05.125Z,99750.34
2022-11-21T06:11:08.919Z,99746.09
2022-11-21T06:14:11.511Z,99747.72
2022-11-21T06:17:13.947Z,99742.63
2022-11-21T06:20:16.992Z,99745.75
2022-11-21T06:23:19.612Z,99745.63
2022-11-21T06:26:25.285Z,99747.97
2022-11-21T06:29:27.959Z,99754.59
2022-11-21T06:32:30.585Z,99766.22
2022-11-21T06:35:33.213Z,99755.69
2022-11-21T06:38:36.097Z,99762.97
2022-11-21T06:41:38.665Z,99762.69
2022-11-21T06:44:41.127Z,99777.31
2022-11-21T06:47:43.985Z,99791.91
2022-11-21T06:50:49.192Z,99780.91
2022-11-21T06:53:57.088Z,99774.06
2022-11-21T06:56:59.735Z,99768.41
2022-11-21T07:00:02.636Z,99768.19
2022-11-21T07:03:05.716Z,99768.03
2022-11-21T07:06:08.783Z,99769.53
2022-11-21T07:09:32.360Z,99769.50
2022-11-21T07:12:54.150Z,99757.66
2022-11-21T07:16:05.369Z,99762.47
2022-11-21T07:19:07.794Z,99759.66
2022-11-21T07:22:11.306Z,99754.63
2022-11-21T07:25:14.041Z,99750.31
2022-11-21T07:28:16.490Z,99732.53
2022-11-21T07:31:19.452Z,99744.72
2022-11-21T07:34:22.447Z,99751.28
2022-11-21T07:37:25.290Z,99743.31
2022-11-21T07:40:29.246Z,99737.31
2022-11-21T07:43:32.068Z,99741.47
2022-11-21T07:46:34.975Z,99732.72
2022-11-21T07:49:38.371Z,99735.91
2022-11-21T07:52:41.073Z,99721.28
2022-11-21T07:55:44.999Z,99716.09
2022-11-21T07:58:47.603Z,99716.16
2022-11-21T08:01:52.535Z,99711.88
2022-11-21T08:04:55.660Z,99720.50
2022-11-21T08:07:58.192Z,99717.31
2022-11-21T08:11:05.004Z,99699.91
2022-11-21T08:14:07.535Z,99693.91
2022-11-21T08:17:10.037Z,99693.00
2022-11-21T08:20:12.728Z,99686.78
2022-11-21T08:23:15.879Z,99680.00
2022-11-21T08:26:18.804Z,99683.94
2022-11-21T08:29:21.712Z,99688.25
2022-11-21T08:32:24.296Z,99697.19
2022-11-21T08:35:27.472Z,99708.00
2022-11-21T08:38:29.975Z,99705.78
2022-11-21T08:41:51.200Z,99715.94
2022-11-21T08:44:53.680Z,99725.22
2022-11-21T08:47:56.293Z,99725.59
2022-11-21T08:50:58.698Z,99729.91
2022-11-21T08:54:01.478Z,99742.13
2022-11-21T08:57:04.128Z,99745.44
2022-11-21T09:00:08.264Z,99745.31
2022-11-21T09:03:10.747Z,99738.25
2022-11-21T09:06:13.766Z,99750.41
2022-11-21T09:12:24.951Z,99736.81
2022-11-21T09:15:46.226Z,99730.69
2022-11-21T09:18:52.347Z,99733.59
2022-11-21T09:21:55.180Z,99728.03
2022-11-21T09:25:00.546Z,99710.09
2022-11-21T09:28:04.606Z,99714.75
2022-11-21T09:31:07.483Z,99712.78
2022-11-21T09:34:10.709Z,99706.22
2022-11-21T09:37:13.424Z,99698.00
2022-11-21T09:40:17.265Z,99703.78
2022-11-21T09:43:55.543Z,99694.25
2022-11-21T09:47:17.144Z,99688.81
2022-11-21T09:50:28.697Z,99686.81
2022-11-21T09:53:38.012Z,99676.66
2022-11-21T09:56:43.354Z,99682.19
2022-11-21T09:59:47.198Z,99679.28
2022-11-21T10:02:52.414Z,99678.56
2022-11-21T10:05:58.245Z,99674.66
2022-11-21T10:09:33.315Z,99675.88
2022-11-21T10:13:16.196Z,99654.91
2022-11-21T10:16:37.972Z,99661.75
2022-11-21T10:19:50.646Z,99658.47
2022-11-21T10:23:16.336Z,99649.28
2022-11-21T10:26:46.274Z,99642.28
2022-11-21T10:30:15.891Z,99634.75
2022-11-21T10:33:36.628Z,99646.06
2022-11-21T10:36:42.876Z,99649.56
2022-11-21T10:39:49.087Z,99645.88
2022-11-21T10:43:21.978Z,99638.09
2022-11-21T10:46:24.795Z,99647.34
2022-11-21T10:49:31.055Z,99643.31
2022-11-21T10:52:39.856Z,99639.31
2022-11-21T10:56:01.239Z,99631.63
2022-11-21T10:59:22.580Z,99641.81
2022-11-21T11:02:27.957Z,99644.78
2022-11-21T11:05:35.647Z,99649.47
2022-11-21T11:09:05.061Z,99655.94
2022-11-21T11:12:46.851Z,99645.47
2022-11-21T11:15:54.092Z,99648.31
2022-11-21T11:19:03.385Z,99642.22
2022-11-21T11:22:29.975Z,99649.25
2022-11-21T11:25:35.241Z,99641.28
2022-11-21T11:28:37.858Z,99644.06
2022-11-21T11:31:42.361Z,99650.09
2022-11-21T11:34:51.009Z,99634.09
2022-11-21T11:38:03.971Z,99635.81
2022-11-21T11:41:17.469Z,99633.09
2022-11-21T11:44:52.172Z,99628.09
2022-11-21T11:47:57.954Z,99617.38
2022-11-21T11:51:04.217Z,99612.84
2022-11-21T11:54:14.862Z,99608.63
2022-11-21T11:57:18.699Z,99600.47
2022-11-21T12:00:42.537Z,99604.13
2022-11-21T12:03:58.154Z,99613.31
2022-11-21T12:11:25.330Z,99608.94
2022-11-21T12:15:21.553Z,99601.16
2022-11-21T12:18:33.986Z,99588.38
2022-11-21T12:21:36.803Z,99592.97
2022-11-21T12:24:42.962Z,99591.09
2022-11-21T12:27:52.109Z,99600.69
2022-11-21T12:31:32.198Z,99604.53
2022-11-21T12:34:43.677Z,99607.16
2022-11-21T12:37:59.441Z,99597.69
2022-11-21T12:41:52.019Z,99593.63
2022-11-21T12:45:24.573Z,99593.63
2022-11-21T12:49:14.847Z,99592.34
2022-11-21T12:52:50.545Z,99593.00
2022-11-21T12:56:00.649Z,99590.00
2022-11-21T12:59:04.796Z,99585.16
2022-11-21T13:02:30.800Z,99587.78
2022-11-21T13:05:46.899Z,99587.19
2022-11-21T13:08:55.990Z,99578.13
2022-11-21T13:12:17.892Z,99584.31
2022-11-21T13:15:23.519Z,99588.41
2022-11-21T13:18:31.635Z,99592.50
2022-11-21T13:21:47.984Z,99587.03
2022-11-21T13:24:53.415Z,99588.88
2022-11-21T13:28:16.704Z,99590.34
2022-11-21T13:31:30.685Z,99587.03
2022-11-21T13:34:37.881Z,99589.47
2022-11-21T13:37:55.398Z,99589.25
2022-11-21T13:41:17.101Z,99597.63
2022-11-21T13:44:41.406Z,99590.22
2022-11-21T13:48:10.866Z,99588.38
2022-11-21T13:51:38.617Z,99585.81
2022-11-21T13:55:02.420Z,99583.59
2022-11-21T13:58:22.992Z,99594.91
2022-11-21T14:01:53.467Z,99592.63
2022-11-21T14:05:11.096Z,99593.53
2022-11-21T14:08:27.051Z,99601.84
2022-11-21T14:11:41.444Z,99601.78
2022-11-21T14:15:02.433Z,99611.22
2022-11-21T14:18:06.409Z,99610.03
2022-11-21T14:21:29.031Z,99606.72
2022-11-21T14:24:32.138Z,99604.53
2022-11-21T14:27:44.893Z,99603.63
2022-11-21T14:30:47.967Z,99610.47
2022-11-21T14:33:57.216Z,99615.41
2022-11-21T14:37:06.363Z,99605.34
2022-11-21T14:40:13.583Z,99608.41
2022-11-21T14:43:33.422Z,99620.09
2022-11-21T14:46:40.960Z,99611.88
2022-11-21T14:49:54.437Z,99609.63
2022-11-21T14:53:00.623Z,99621.72
2022-11-21T14:56:03.828Z,99622.13
2022-11-21T14:59:20.242Z,99618.34
2022-11-21T15:02:25.754Z,99615.44
2022-11-21T15:06:00.874Z,99630.13
2022-11-21T15:10:24.789Z,99625.69
2022-11-21T15:12:23.712Z,99641.19
2022-11-21T15:15:38.647Z,99635.34
2022-11-21T15:18:42.614Z,99635.59
2022-11-21T15:21:46.546Z,99632.38
2022-11-21T15:24:49.212Z,99631.88
2022-11-21T15:27:52.263Z,99638.28
2022-11-21T15:31:18.191Z,99638.81
2022-11-21T15:34:37.245Z,99642.41
2022-11-21T15:37:48.777Z,99641.84
2022-11-21T15:41:25.227Z,99650.94
2022-11-21T15:44:28.157Z,99642.63
2022-11-21T15:47:30.967Z,99640.19
2022-11-21T15:50:34.821Z,99642.63
2022-11-21T15:53:38.445Z,99639.44
2022-11-21T15:56:40.995Z,99642.19
2022-11-21T15:59:43.490Z,99638.66
2022-11-21T16:02:47.278Z,99637.28
2022-11-21T16:05:50.316Z,99651.13
2022-11-21T16:08:52.831Z,99649.09
2022-11-21T16:11:55.334Z,99643.31
2022-11-21T16:14:57.802Z,99642.91
2022-11-21T16:18:00.563Z,99643.22
2022-11-21T16:21:08.293Z,99649.56
2022-11-21T16:24:10.910Z,99651.09
2022-11-21T16:27:13.728Z,99650.75
2022-11-21T16:30:16.367Z,99644.13
2022-11-21T16:33:21.701Z,99646.69
2022-11-21T16:36:30.459Z,99643.13
2022-11-21T16:39:33.359Z,99639.47
2022-11-21T16:42:36.122Z,99647.44
2022-11-21T16:45:39.806Z,99646.03
2022-11-21T16:48:42.681Z,99636.34
2022-11-21T16:51:46.212Z,99658.47
2022-11-21T16:54:48.971Z,99669.94
2022-11-21T16:57:51.856Z,99663.41
2022-11-21T17:00:54.513Z,99665.09
2022-11-21T17:03:57.177Z,99671.66
2022-11-21T17:07:01.289Z,99667.31
2022-11-21T17:10:04.165Z,99668.25
2022-11-21T17:13:06.807Z,99661.38
2022-11-21T17:16:11.449Z,99668.34
2022-11-21T17:19:16.256Z,99671.38
2022-11-21T17:22:24.596Z,99662.34
2022-11-21T17:25:27.544Z,99669.03
2022-11-21T17:28:30.312Z,99672.44
2022-11-21T17:31:33.196Z,99671.59
2022-11-21T17:34:36.031Z,99671.25
2022-11-21T17:37:39.015Z,99669.03
2022-11-21T17:40:41.736Z,99669.78
2022-11-21T17:43:45.380Z,99678.69
2022-11-21T17:46:48.079Z,99680.44
2022-11-21T17:49:51.354Z,99670.38
2022-11-21T17:52:53.952Z,99682.19
2022-11-21T17:55:58.800Z,99683.88
2022-11-21T17:59:02.015Z,99680.81
2022-11-21T18:02:04.796Z,99684.94
2022-11-21T18:05:07.529Z,99684.25
2022-11-21T18:08:10.033Z,99683.47
2022-11-21T18:11:15.297Z,99681.84
2022-11-21T18:14:19.137Z,99691.19
2022-11-21T18:17:21.930Z,99692.72
2022-11-21T18:20:24.588Z,99683.56
2022-11-21T18:23:27.719Z,99691.66
2022-11-21T18:26:33.510Z,99693.22
2022-11-21T18:29:37.172Z,99693.72
2022-11-21T18:32:40.044Z,99698.00
2022-11-21T18:35:43.216Z,99709.91
2022-11-21T18:38:49.600Z,99699.59
2022-11-21T18:41:56.209Z,99707.22
2022-11-21T18:44:58.913Z,99697.94
2022-11-21T18:48:01.996Z,99689.56
2022-11-21T18:51:13.200Z,99705.00
2022-11-21T18:54:15.897Z,99691.66
2022-11-21T18:57:18.640Z,99700.28
2022-11-21T19:00:21.407Z,99710.63
2022-11-21T19:03:24.052Z,99696.38
2022-11-21T19:06:28.011Z,99702.03
2022-11-21T19:09:32.817Z,99703.81
2022-11-21T19:12:39.641Z,99696.44
2022-11-21T19:15:43.047Z,99707.84
2022-11-21T19:18:59.936Z,99706.09
2022-11-21T19:22:10.048Z,99705.94
2022-11-21T19:25:12.487Z,99711.88
2022-11-21T19:28:15.174Z,99713.28
2022-11-21T19:31:19.139Z,99712.63
2022-11-21T19:34:21.791Z,99711.72
2022-11-21T19:37:24.648Z,99716.03
2022-11-21T19:40:47.680Z,99724.78
2022-11-21T19:43:54.854Z,99721.47
2022-11-21T19:46:57.585Z,99724.97
2022-11-21T19:50:00.698Z,99724.44
2022-11-21T19:53:03.172Z,99727.09
2022-11-21T19:56:09.926Z,99727.91
2022-11-21T19:59:14.680Z,99726.75
2022-11-21T20:02:20.003Z,99723.09
2022-11-21T20:05:22.695Z,99734.44
2022-11-21T20:08:25.885Z,99735.41
2022-11-21T20:11:30.583Z,99734.44
2022-11-21T20:14:33.754Z,99736.72
2022-11-21T20:17:36.526Z,99733.94
2022-11-21T20:20:39.295Z,99744.78
2022-11-21T20:23:42.563Z,99734.63
2022-11-21T20:26:45.443Z,99746.00
2022-11-21T20:29:49.128Z,99743.34
2022-11-21T20:32:51.685Z,99742.31
2022-11-21T20:35:54.862Z,99751.78
2022-11-21T20:38:57.683Z,99750.72
2022-11-21T20:42:00.302Z,99746.13
2022-11-21T20:48:25.897Z,99769.03
2022-11-21T20:54:51.379Z,99765.88
2022-11-21T20:57:54.148Z,99765.09
2022-11-21T21:00:57.523Z,99774.56
2022-11-21T21:04:00.546Z,99775.44
2022-11-21T21:07:03.545Z,99764.31
2022-11-21T21:10:07.091Z,99762.25
2022-11-21T21:13:09.929Z,99771.06
2022-11-21T21:16:15.710Z,99766.59
2022-11-21T21:19:18.646Z,99770.97
2022-11-21T21:22:21.354Z,99775.06
2022-11-21T21:25:24.331Z,99763.00
2022-11-21T21:28:26.942Z,99776.66
2022-11-21T21:31:30.731Z,99775.91
2022-11-21T21:34:33.676Z,99774.19
2022-11-21T21:37:36.377Z,99783.25
2022-11-21T21:40:38.977Z,99785.81
2022-11-21T21:43:42.517Z,99779.66
2022-11-21T21:46:45.100Z,99791.69
2022-11-21T21:49:48.718Z,99793.31
2022-11-21T21:52:51.091Z,99786.22
2022-11-21T21:55:53.579Z,99798.97
2022-11-21T21:58:57.678Z,99786.16
2022-11-21T22:02:00.298Z,99786.06
2022-11-21T22:05:02.931Z,99787.91
2022-11-21T22:08:05.580Z,99777.06
2022-11-21T22:11:19.722Z,99783.63
2022-11-21T22:14:22.373Z,99785.72
2022-11-21T22:17:24.986Z,99781.38
2022-11-21T22:20:28.012Z,99793.88
2022-11-21T22:23:30.832Z,99799.13
2022-11-21T22:26:33.346Z,99785.44
2022-11-21T22:29:35.734Z,99770.88
2022-11-21T22:32:38.345Z,99773.44
2022-11-21T22:35:40.838Z,99764.59
2022-11-21T22:38:43.831Z,99758.00
2022-11-21T22:41:46.314Z,99775.13
2022-11-21T22:44:48.846Z,99771.72
2022-11-21T22:47:51.579Z,99772.66
2022-11-21T22:50:54.508Z,99766.00
2022-11-21T22:53:57.655Z,99773.22
2022-11-21T22:57:00.199Z,99771.50
2022-11-21T23:00:03.327Z,99769.13
2022-11-21T23:03:05.726Z,99764.09
2022-11-21T23:06:11.194Z,99765.13
2022-11-21T23:09:13.708Z,99774.47
2022-11-21T23:12:16.239Z,99771.31
2022-11-21T23:15:18.710Z,99766.47
2022-11-21T23:18:21.224Z,99775.84
2022-11-21T23:21:23.801Z,99760.72
2022-11-21T23:24:26.176Z,99759.88
2022-11-21T23:27:28.784Z,99754.00
2022-11-21T23:30:31.487Z,99750.78
2022-11-21T23:33:33.954Z,99757.38
2022-11-21T23:36:36.912Z,99750.72
2022-11-21T23:39:39.442Z,99763.53
2022-11-21T23:42:41.850Z,99754.44
2022-11-21T23:45:45.803Z,99758.00
2022-11-21T23:48:48.362Z,99749.59
2022-11-21T23:51:51.153Z,99748.69
2022-11-21T23:54:53.644Z,99758.19
2022-11-21T23:57:56.098Z,99760.78
